Pagrindinis puslapis
METAR-TAF:

METAR-TAF

Oro uostai :

Kernsas, Australija

platuma: 16-53S, ilguma: 145-45E, Aukštis: 3 m

Dabartinis oras

Ataskaita buvo paskelbta 37 minutes, ne 03:00 UTC
Vėjas 13 kt iš Rytų
Temperatūra 28°C
Drėgmė 40%
Slėgis 1016 hPa
Matomumas 10 km arba daugiau

METAR: YBCS 170300Z AUTO 08013KT 9999 // NCD 28/13 Q1016 RF00.0/000.0 NOSIG

Laikas: 13:37 (03:37 UTC)

Prognozė

Ataskaita buvo paskelbta 4 valandos ir 15 minutes, ne 23:22 UTC
Prognozė galioja nuo 17 metu 00 UTC su 17 metu 24 UTC
Vėjas 12 kt iš Rytų
Matomumas 10 km arba daugiau
Mažai debesys ne aukštis 3500 ft
Nuo 17 metu 0800 UTC
Vėjas 7 kt iš Pietų/Pietryčių
Matomumas 10 km arba daugiau
Mažai debesys ne aukštis 3000 ft
Nuo 17 metu 1200 UTC
Vėjas 5 kt iš Pietų/Pietvakarių
Matomumas 10 km arba daugiau
Mažai debesys ne aukštis 3000 ft
Nuo 17 metu 2300 UTC
Vėjas 7 kt iš Rytų
Matomumas 10 km arba daugiau
Mažai debesys ne aukštis 3000 ft

TAF: YBCS 162322Z 1700/1724 10012KT 9999 FEW035 FM170800 15007KT 9999 FEW030 FM171200 20005KT 9999 FEW030 FM172300 10007KT 9999 FEW030

Orai ataskaitas ir orų prognozės (METAR, TAF).

turimą stotys yra geltonos ir raudonos taškus žemėlapyje.

Perkelti pele per norėdami pamatyti stoties vardą.

Tada spustelėkite, norėdami matyti oro stebėjimo ir prognozės.

Norėdami pakeisti žemėlapį: spustelėkite ant žalios mygtukų su juodo kryžiaus žemyn,; žalią mygtuką su brūkšneliu, jei norite nutolinti; arba žalių rodyklių gretimoms žemėlapius.


METAR-TAF: